Terminal Aerodrome Forecast
Issued by NWS Hastings, NE

Home | Current Version | Previous Version | Text Only | Print | Product List | Glossary On
Versions: 1 2 3 4 5 6 7 8 9 10 11 12 13 14 15 16 17
000
FTUS45 KGID 031557 AAA
TAFEAR
TAF AMD
KEAR 031557Z 0316/0412 34025G35KT P6SM BKN025 BKN040
     FM031900 35022G30KT P6SM SCT025 BKN040
     FM040100 01013G18KT P6SM BKN150
     FM040600 35010KT 4SM -SN BR SCT015 BKN025
      AMD LTD TO CLD VIS AND WIND=

USA.gov is the U.S. government's official web portal to all federal, state and local government web resources and services.